Buhl, Minnesota
Current Conditions -  °F | °C
As of 9:53 PM on Tuesday 21 Oct 2014 (Local Time) from KHIB Reporting Station
Clear Clear  
Wind Chill: 27°   Ceiling: Unl
Heat Index: 35°   Visibility: 10mi
Dew Point: 32°   Wind: 10mph
Humidity: 89%   Direction: 130°SE
Pressure: 30.17"   Gusts: NA
Location:  47.49°N, 92.78°W
Report Text: KHIB 220253Z AUTO 13009KT 10SM CLR 02/00 A3017 RMK AO2 SLP232 T00170000 51007
Loading
Personal Weather Stations






























Interactive Weather Map
Tropical Storm Tracking
New forecast layout! Learn more

10-Day Weather Forecast

Advertisements
Track Severe Weather on mobile